createdAt,value
2018-09-08T00:00:41.368Z,0
2018-09-08T00:01:41.338Z,0
2018-09-08T00:02:41.558Z,0
2018-09-08T00:03:41.526Z,0
2018-09-08T00:04:41.519Z,0
2018-09-08T00:05:41.563Z,0
2018-09-08T00:06:41.781Z,0
2018-09-08T00:07:41.277Z,0
2018-09-08T00:08:41.270Z,0
2018-09-08T00:09:41.025Z,0
2018-09-08T00:10:41.397Z,0
2018-09-08T00:11:41.273Z,0
2018-09-08T00:12:40.999Z,0
2018-09-08T00:13:41.053Z,0
2018-09-08T00:14:41.274Z,0
2018-09-08T00:15:41.819Z,0
2018-09-08T00:16:41.503Z,0
2018-09-08T00:17:41.950Z,0
2018-09-08T00:18:41.236Z,0
2018-09-08T00:19:41.238Z,0
2018-09-08T00:20:40.772Z,0
2018-09-08T00:21:41.232Z,0
2018-09-08T00:22:40.983Z,0
2018-09-08T00:23:41.497Z,0
2018-09-08T00:24:41.746Z,0
2018-09-08T00:25:41.562Z,0
2018-09-08T00:26:41.230Z,0
2018-09-08T00:27:41.491Z,0
2018-09-08T00:28:40.981Z,0
2018-09-08T00:29:41.507Z,0
2018-09-08T00:30:41.837Z,0
2018-09-08T00:31:41.494Z,0
2018-09-08T00:32:41.495Z,0
2018-09-08T00:33:41.229Z,0
2018-09-08T00:34:41.231Z,0
2018-09-08T00:35:41.576Z,0
2018-09-08T00:36:41.517Z,0
2018-09-08T00:37:41.003Z,0
2018-09-08T00:38:41.948Z,0
2018-09-08T00:39:40.983Z,0
2018-09-08T00:40:41.354Z,0
2018-09-08T00:41:40.759Z,0
2018-09-08T00:42:41.237Z,0
2018-09-08T00:43:41.344Z,0
2018-09-08T00:44:41.494Z,0
2018-09-08T00:45:41.352Z,0
2018-09-08T00:46:41.516Z,0
2018-09-08T00:47:40.777Z,0
2018-09-08T00:48:41.494Z,0
2018-09-08T00:49:40.956Z,0
2018-09-08T00:50:41.015Z,0
2018-09-08T00:51:41.211Z,0
2018-09-08T00:52:40.991Z,0
2018-09-08T00:53:41.480Z,0
2018-09-08T00:54:40.704Z,0
2018-09-08T00:55:41.497Z,0
2018-09-08T00:56:41.450Z,0
2018-09-08T00:57:41.208Z,0
2018-09-08T00:58:41.444Z,0
2018-09-08T00:59:41.449Z,0
2018-09-08T01:00:41.738Z,0
2018-09-08T01:01:41.704Z,0
2018-09-08T01:02:41.462Z,0
2018-09-08T01:03:41.868Z,0
2018-09-08T01:04:41.186Z,0
2018-09-08T01:05:41.471Z,0
2018-09-08T01:06:41.189Z,0
2018-09-08T01:07:41.704Z,0
2018-09-08T01:08:41.477Z,0
2018-09-08T01:09:41.452Z,0
2018-09-08T01:10:41.164Z,0
2018-09-08T01:11:41.705Z,0
2018-09-08T01:12:40.957Z,0
2018-09-08T01:13:40.930Z,0
2018-09-08T01:14:41.444Z,0
2018-09-08T01:15:41.448Z,0
2018-09-08T01:16:41.542Z,0
2018-09-08T01:17:41.428Z,0
2018-09-08T01:18:41.422Z,0
2018-09-08T01:19:41.167Z,0
2018-09-08T01:20:40.925Z,0
2018-09-08T01:21:40.940Z,0
2018-09-08T01:22:41.201Z,0
2018-09-08T01:23:41.416Z,0
2018-09-08T01:24:41.431Z,0
2018-09-08T01:25:41.024Z,0
2018-09-08T01:26:41.687Z,0
2018-09-08T01:27:41.970Z,0
2018-09-08T01:28:41.677Z,0
2018-09-08T01:29:41.140Z,0
2018-09-08T01:30:41.464Z,0
2018-09-08T01:31:41.666Z,0
2018-09-08T01:32:41.684Z,0
2018-09-08T01:33:41.422Z,0
2018-09-08T01:34:41.404Z,0
2018-09-08T01:35:41.821Z,0
2018-09-08T01:36:41.146Z,0
2018-09-08T01:37:41.410Z,0
2018-09-08T01:38:41.410Z,0
2018-09-08T01:39:41.141Z,0
2018-09-08T01:40:40.916Z,0
2018-09-08T01:41:41.405Z,0
2018-09-08T01:42:40.862Z,0
2018-09-08T01:43:40.866Z,0
2018-09-08T01:44:40.627Z,0
2018-09-08T01:45:40.960Z,0
2018-09-08T01:46:40.878Z,0
2018-09-08T01:47:42.160Z,0
2018-09-08T01:48:41.376Z,0
2018-09-08T01:49:41.646Z,0
2018-09-08T01:50:41.424Z,0
2018-09-08T01:51:40.607Z,0
2018-09-08T01:52:41.373Z,0
2018-09-08T01:53:40.597Z,0
2018-09-08T01:54:41.104Z,0
2018-09-08T01:55:41.232Z,0
2018-09-08T01:56:41.619Z,0
2018-09-08T01:57:41.381Z,0
2018-09-08T01:58:41.092Z,0
2018-09-08T01:59:41.381Z,0
2018-09-08T02:00:41.163Z,0
2018-09-08T02:01:41.639Z,0
2018-09-08T02:02:41.125Z,0
2018-09-08T02:03:41.344Z,0
2018-09-08T02:04:41.612Z,0
2018-09-08T02:05:41.126Z,0
2018-09-08T02:06:40.596Z,0
2018-09-08T02:07:41.089Z,0
2018-09-08T02:08:41.079Z,0
2018-09-08T02:09:40.825Z,0
2018-09-08T02:10:41.353Z,0
2018-09-08T02:11:41.595Z,0
2018-09-08T02:12:41.084Z,0
2018-09-08T02:13:41.322Z,0
2018-09-08T02:14:40.828Z,0
2018-09-08T02:15:41.390Z,0
2018-09-08T02:16:41.593Z,0
2018-09-08T02:17:41.591Z,0
2018-09-08T02:18:41.563Z,0
2018-09-08T02:19:41.066Z,0
2018-09-08T02:20:41.333Z,0
2018-09-08T02:21:41.324Z,0
2018-09-08T02:22:41.053Z,0
2018-09-08T02:23:41.316Z,0
2018-09-08T02:24:41.342Z,0
2018-09-08T02:25:41.499Z,0
2018-09-08T02:26:41.324Z,0
2018-09-08T02:27:41.074Z,0
2018-09-08T02:28:41.577Z,0
2018-09-08T02:29:41.318Z,0
2018-09-08T02:30:41.599Z,0
2018-09-08T02:31:41.596Z,0
2018-09-08T02:32:41.351Z,0
2018-09-08T02:33:41.547Z,0
2018-09-08T02:34:41.041Z,0
2018-09-08T02:35:41.654Z,0
2018-09-08T02:36:41.551Z,0
2018-09-08T02:37:40.798Z,0
2018-09-08T02:38:41.107Z,0
2018-09-08T02:39:41.313Z,0
2018-09-08T02:40:41.327Z,0
2018-09-08T02:41:41.010Z,0
2018-09-08T02:42:41.298Z,0
2018-09-08T02:43:41.281Z,0
2018-09-08T02:44:41.063Z,0
2018-09-08T02:45:41.326Z,0
2018-09-08T02:46:41.290Z,0
2018-09-08T02:47:41.529Z,0
2018-09-08T02:48:41.535Z,0
2018-09-08T02:49:40.999Z,0
2018-09-08T02:50:41.312Z,0
2018-09-08T02:51:41.266Z,0
2018-09-08T02:52:41.524Z,0
2018-09-08T02:53:41.262Z,0
2018-09-08T02:54:41.371Z,0
2018-09-08T02:55:41.553Z,0
2018-09-08T02:56:41.506Z,0
2018-09-08T02:57:41.500Z,0
2018-09-08T02:58:41.508Z,0
2018-09-08T02:59:41.274Z,0
2018-09-08T03:00:41.035Z,0
2018-09-08T03:01:41.043Z,0
2018-09-08T03:02:40.998Z,0
2018-09-08T03:03:40.984Z,0
2018-09-08T03:04:41.237Z,0
2018-09-08T03:05:41.581Z,0
2018-09-08T03:06:41.005Z,0
2018-09-08T03:07:40.979Z,0
2018-09-08T03:08:41.470Z,0
2018-09-08T03:09:40.978Z,0
2018-09-08T03:10:41.521Z,0
2018-09-08T03:11:41.207Z,0
2018-09-08T03:12:41.309Z,0
2018-09-08T03:13:41.544Z,0
2018-09-08T03:14:41.458Z,0
2018-09-08T03:15:41.337Z,0
2018-09-08T03:16:40.718Z,0
2018-09-08T03:17:40.950Z,0
2018-09-08T03:18:42.020Z,0
2018-09-08T03:19:40.971Z,0
2018-09-08T03:20:41.215Z,0
2018-09-08T03:21:41.454Z,0
2018-09-08T03:22:40.943Z,0
2018-09-08T03:23:41.180Z,0
2018-09-08T03:24:41.462Z,0
2018-09-08T03:25:41.259Z,0
2018-09-08T03:26:41.194Z,0
2018-09-08T03:27:41.439Z,0
2018-09-08T03:28:41.200Z,0
2018-09-08T03:29:41.451Z,0
2018-09-08T03:30:40.735Z,0
2018-09-08T03:31:41.204Z,0
2018-09-08T03:32:40.932Z,0
2018-09-08T03:33:40.918Z,0
2018-09-08T03:34:41.420Z,0
2018-09-08T03:35:41.449Z,0
2018-09-08T03:36:41.225Z,0
2018-09-08T03:37:41.417Z,0
2018-09-08T03:38:41.149Z,0
2018-09-08T03:39:41.408Z,0
2018-09-08T03:40:40.949Z,0
2018-09-08T03:41:41.143Z,0
2018-09-08T03:42:41.415Z,0
2018-09-08T03:43:41.143Z,0
2018-09-08T03:44:41.149Z,0
2018-09-08T03:45:41.233Z,0
2018-09-08T03:46:41.415Z,0
2018-09-08T03:47:41.133Z,0
2018-09-08T03:48:41.927Z,0
2018-09-08T03:49:40.623Z,0
2018-09-08T03:50:41.227Z,0
2018-09-08T03:51:41.119Z,0
2018-09-08T03:52:41.136Z,0
2018-09-08T03:53:41.116Z,0
2018-09-08T03:54:41.121Z,0
2018-09-08T03:55:40.924Z,0
2018-09-08T03:56:40.597Z,0
2018-09-08T03:57:41.375Z,0
2018-09-08T03:58:41.378Z,0
2018-09-08T03:59:40.860Z,0
2018-09-08T04:00:40.642Z,0
2018-09-08T04:01:40.593Z,0
2018-09-08T04:02:41.095Z,0
2018-09-08T04:03:40.580Z,0
2018-09-08T04:04:41.094Z,0
2018-09-08T04:05:41.529Z,0
2018-09-08T04:06:40.841Z,0
2018-09-08T04:07:41.123Z,0
2018-09-08T04:08:41.102Z,0
2018-09-08T04:09:40.840Z,0
2018-09-08T04:10:41.378Z,0
2018-09-08T04:11:40.597Z,0
2018-09-08T04:12:40.853Z,0
2018-09-08T04:13:41.067Z,0
2018-09-08T04:14:40.829Z,0
2018-09-08T04:15:41.171Z,0
2018-09-08T04:16:41.079Z,0
2018-09-08T04:17:40.552Z,0
2018-09-08T04:18:40.574Z,0
2018-09-08T04:19:41.335Z,0
2018-09-08T04:20:40.819Z,0
2018-09-08T04:21:40.817Z,0
2018-09-08T04:22:41.065Z,0
2018-09-08T04:23:41.299Z,0
2018-09-08T04:24:40.535Z,0
2018-09-08T04:25:41.044Z,0
2018-09-08T04:26:40.794Z,0
2018-09-08T04:27:41.306Z,0
2018-09-08T04:28:41.038Z,0
2018-09-08T04:29:41.564Z,0
2018-09-08T04:30:40.562Z,0
2018-09-08T04:31:41.282Z,0
2018-09-08T04:32:40.783Z,0
2018-09-08T04:33:41.275Z,0
2018-09-08T04:34:41.008Z,0
2018-09-08T04:35:40.623Z,0
2018-09-08T04:36:41.258Z,0
2018-09-08T04:37:41.012Z,0
2018-09-08T04:38:40.493Z,0
2018-09-08T04:39:41.017Z,0
2018-09-08T04:40:41.064Z,0
2018-09-08T04:41:41.247Z,0
2018-09-08T04:42:41.058Z,0
2018-09-08T04:43:40.742Z,5
2018-09-08T04:44:40.758Z,5
2018-09-08T04:45:40.533Z,5
2018-09-08T04:46:41.010Z,5
2018-09-08T04:47:41.240Z,5
2018-09-08T04:48:41.258Z,5
2018-09-08T04:49:41.517Z,5
2018-09-08T04:50:40.825Z,5
2018-09-08T04:51:40.850Z,10
2018-09-08T04:52:41.220Z,10
2018-09-08T04:53:40.747Z,10
2018-09-08T04:54:41.296Z,10
2018-09-08T04:55:40.481Z,15
2018-09-08T04:56:40.719Z,15
2018-09-08T04:57:40.950Z,15
2018-09-08T04:58:40.700Z,15
2018-09-08T04:59:40.444Z,20
2018-09-08T05:00:40.734Z,20
2018-09-08T05:01:40.697Z,20
2018-09-08T05:02:40.513Z,20
2018-09-08T05:03:40.940Z,25
2018-09-08T05:04:41.203Z,25
2018-09-08T05:05:40.732Z,25
2018-09-08T05:06:40.938Z,30
2018-09-08T05:07:40.919Z,30
2018-09-08T05:08:40.695Z,30
2018-09-08T05:09:41.191Z,35
2018-09-08T05:10:40.740Z,35
2018-09-08T05:11:40.921Z,35
2018-09-08T05:12:41.185Z,40
2018-09-08T05:13:40.438Z,40
2018-09-08T05:14:41.184Z,45
2018-09-08T05:15:40.995Z,45
2018-09-08T05:16:40.693Z,50
2018-09-08T05:17:40.645Z,55
2018-09-08T05:18:40.913Z,70
2018-09-08T05:19:44.116Z,90
2018-09-08T05:20:41.192Z,95
2018-09-08T05:21:40.934Z,100
2018-09-08T05:22:41.166Z,110
2018-09-08T05:23:40.883Z,110
2018-09-08T05:24:41.168Z,115
2018-09-08T05:25:40.737Z,115
2018-09-08T05:26:41.161Z,120
2018-09-08T05:27:40.641Z,120
2018-09-08T05:28:41.598Z,120
2018-09-08T05:29:41.167Z,120
2018-09-08T05:30:40.913Z,120
2018-09-08T05:31:40.630Z,125
2018-09-08T05:32:40.366Z,125
2018-09-08T05:33:40.390Z,125
2018-09-08T05:34:41.149Z,130
2018-09-08T05:35:40.416Z,125
2018-09-08T05:36:40.689Z,125
2018-09-08T05:37:40.888Z,115
2018-09-08T05:38:40.900Z,105
2018-09-08T05:39:40.908Z,85
2018-09-08T05:40:40.747Z,75
2018-09-08T05:41:40.656Z,80
2018-09-08T05:42:40.891Z,75
2018-09-08T05:43:41.149Z,75
2018-09-08T05:44:40.898Z,75
2018-09-08T05:45:40.727Z,75
2018-09-08T05:46:40.373Z,75
2018-09-08T05:47:40.652Z,75
2018-09-08T05:48:40.447Z,80
2018-09-08T05:49:44.106Z,90
2018-09-08T05:50:40.374Z,100
2018-09-08T05:51:40.659Z,100
2018-09-08T05:52:40.649Z,100
2018-09-08T05:53:40.388Z,100
2018-09-08T05:54:41.151Z,100
2018-09-08T05:55:40.655Z,100
2018-09-08T05:56:41.218Z,100
2018-09-08T05:57:40.645Z,100
2018-09-08T05:58:41.211Z,100
2018-09-08T05:59:40.765Z,100
2018-09-08T06:00:40.646Z,100
2018-09-08T06:01:40.898Z,100
2018-09-08T06:02:40.644Z,100
2018-09-08T06:03:40.633Z,105
2018-09-08T06:04:40.885Z,105
2018-09-08T06:05:41.542Z,105
2018-09-08T06:06:41.150Z,105
2018-09-08T06:07:40.871Z,105
2018-09-08T06:08:41.163Z,105
2018-09-08T06:09:41.139Z,110
2018-09-08T06:10:40.952Z,110
2018-09-08T06:11:40.639Z,110
2018-09-08T06:12:40.623Z,110
2018-09-08T06:13:40.874Z,115
2018-09-08T06:14:40.874Z,115
2018-09-08T06:15:40.963Z,115
2018-09-08T06:16:40.643Z,120
2018-09-08T06:17:40.609Z,125
2018-09-08T06:18:40.881Z,125
2018-09-08T06:19:41.088Z,125
2018-09-08T06:20:41.196Z,125
2018-09-08T06:21:40.617Z,135
2018-09-08T06:22:40.910Z,140
2018-09-08T06:23:41.115Z,145
2018-09-08T06:24:41.136Z,150
2018-09-08T06:25:41.399Z,155
2018-09-08T06:26:40.876Z,160
2018-09-08T06:27:40.865Z,170
2018-09-08T06:28:40.611Z,185
2018-09-08T06:29:40.878Z,195
2018-09-08T06:30:41.193Z,205
2018-09-08T06:31:40.384Z,215
2018-09-08T06:32:41.111Z,225
2018-09-08T06:33:41.058Z,230
2018-09-08T06:34:40.339Z,230
2018-09-08T06:35:40.674Z,225
2018-09-08T06:36:41.151Z,210
2018-09-08T06:37:40.867Z,210
2018-09-08T06:38:40.606Z,215
2018-09-08T06:39:40.381Z,225
2018-09-08T06:40:40.431Z,240
2018-09-08T06:41:40.347Z,245
2018-09-08T06:42:40.662Z,235
2018-09-08T06:43:40.626Z,240
2018-09-08T06:44:40.115Z,245
2018-09-08T06:45:40.714Z,250
2018-09-08T06:46:40.358Z,255
2018-09-08T06:47:40.360Z,255
2018-09-08T06:48:40.632Z,255
2018-09-08T06:49:40.371Z,255
2018-09-08T06:50:41.213Z,255
2018-09-08T06:51:40.640Z,260
2018-09-08T06:52:40.646Z,260
2018-09-08T06:53:40.658Z,260
2018-09-08T06:54:40.898Z,265
2018-09-08T06:55:41.236Z,265
2018-09-08T06:56:40.384Z,270
2018-09-08T06:57:40.404Z,275
2018-09-08T06:58:40.932Z,275
2018-09-08T06:59:40.687Z,280
2018-09-08T07:00:40.674Z,280
2018-09-08T07:01:40.980Z,275
2018-09-08T07:02:40.691Z,260
2018-09-08T07:03:41.136Z,245
2018-09-08T07:04:41.207Z,240
2018-09-08T07:05:40.708Z,245
2018-09-08T07:06:40.673Z,235
2018-09-08T07:07:40.918Z,225
2018-09-08T07:08:40.680Z,225
2018-09-08T07:09:40.694Z,230
2018-09-08T07:10:41.093Z,235
2018-09-08T07:11:40.757Z,230
2018-09-08T07:12:40.976Z,220
2018-09-08T07:13:40.985Z,220
2018-09-08T07:14:40.995Z,225
2018-09-08T07:15:40.989Z,235
2018-09-08T07:16:40.743Z,235
2018-09-08T07:17:40.761Z,245
2018-09-08T07:18:41.004Z,260
2018-09-08T07:19:40.510Z,270
2018-09-08T07:20:40.810Z,275
2018-09-08T07:21:41.286Z,275
2018-09-08T07:22:41.021Z,275
2018-09-08T07:23:41.028Z,280
2018-09-08T07:24:41.045Z,280
2018-09-08T07:25:40.527Z,280
2018-09-08T07:26:41.040Z,280
2018-09-08T07:27:41.037Z,285
2018-09-08T07:28:41.289Z,285
2018-09-08T07:29:41.049Z,280
2018-09-08T07:30:40.584Z,280
2018-09-08T07:31:41.057Z,285
2018-09-08T07:32:40.801Z,280
2018-09-08T07:33:40.822Z,290
2018-09-08T07:34:41.338Z,290
2018-09-08T07:35:41.298Z,290
2018-09-08T07:36:40.827Z,285
2018-09-08T07:37:41.102Z,285
2018-09-08T07:38:40.845Z,285
2018-09-08T07:39:41.096Z,285
2018-09-08T07:40:40.919Z,290
2018-09-08T07:41:40.860Z,290
2018-09-08T07:42:41.121Z,290
2018-09-08T07:43:41.126Z,295
2018-09-08T07:44:41.120Z,285
2018-09-08T07:45:41.445Z,285
2018-09-08T07:46:41.223Z,285
2018-09-08T07:47:41.157Z,285
2018-09-08T07:48:40.655Z,290
2018-09-08T07:49:41.173Z,285
2018-09-08T07:50:41.204Z,285
2018-09-08T07:51:41.693Z,210
2018-09-08T07:52:40.918Z,210
2018-09-08T07:53:42.046Z,205
2018-09-08T07:54:40.950Z,200
2018-09-08T07:55:41.298Z,205
2018-09-08T07:56:41.480Z,205
2018-09-08T07:57:41.475Z,205
2018-09-08T07:58:41.460Z,205
2018-09-08T07:59:40.960Z,215
2018-09-08T08:00:41.016Z,230
2018-09-08T08:01:41.229Z,240
2018-09-08T08:02:41.222Z,245
2018-09-08T08:03:41.249Z,245
2018-09-08T08:04:41.234Z,245
2018-09-08T08:05:41.032Z,250
2018-09-08T08:06:41.664Z,250
2018-09-08T08:07:41.243Z,250
2018-09-08T08:08:40.775Z,255
2018-09-08T08:09:41.523Z,260
2018-09-08T08:10:41.296Z,260
2018-09-08T08:11:41.514Z,265
2018-09-08T08:12:41.312Z,265
2018-09-08T08:13:41.010Z,265
2018-09-08T08:14:42.011Z,270
2018-09-08T08:15:41.105Z,270
2018-09-08T08:16:40.774Z,275
2018-09-08T08:17:41.029Z,275
2018-09-08T08:18:40.524Z,265
2018-09-08T08:19:40.842Z,265
2018-09-08T08:20:41.119Z,265
2018-09-08T08:21:41.360Z,265
2018-09-08T08:22:40.812Z,265
2018-09-08T08:23:41.334Z,265
2018-09-08T08:24:41.635Z,265
2018-09-08T08:25:40.867Z,265
2018-09-08T08:26:41.340Z,265
2018-09-08T08:27:41.086Z,265
2018-09-08T08:28:41.361Z,265
2018-09-08T08:29:41.114Z,265
2018-09-08T08:30:41.170Z,260
2018-09-08T08:31:41.369Z,260
2018-09-08T08:32:40.859Z,260
2018-09-08T08:33:41.390Z,255
2018-09-08T08:34:41.666Z,255
2018-09-08T08:35:41.204Z,255
2018-09-08T08:36:41.675Z,255
2018-09-08T08:37:41.680Z,255
2018-09-08T08:38:41.164Z,255
2018-09-08T08:39:40.907Z,255
2018-09-08T08:40:41.236Z,255
2018-09-08T08:41:41.433Z,255
2018-09-08T08:42:40.665Z,255
2018-09-08T08:43:40.919Z,255
2018-09-08T08:44:41.198Z,255
2018-09-08T08:45:41.216Z,255
2018-09-08T08:46:41.716Z,255
2018-09-08T08:47:41.687Z,255
2018-09-08T08:48:41.439Z,255
2018-09-08T08:49:41.485Z,255
2018-09-08T08:50:41.704Z,255
2018-09-08T08:51:43.087Z,255
2018-09-08T08:52:41.768Z,255
2018-09-08T08:53:41.714Z,255
2018-09-08T08:54:41.707Z,260
2018-09-08T08:55:41.320Z,260
2018-09-08T08:56:40.969Z,260
2018-09-08T08:57:41.210Z,260
2018-09-08T08:58:41.471Z,260
2018-09-08T08:59:41.473Z,260
2018-09-08T09:00:41.891Z,260
2018-09-08T09:01:40.981Z,260
2018-09-08T09:02:41.730Z,265
2018-09-08T09:03:41.474Z,260
2018-09-08T09:04:40.987Z,260
2018-09-08T09:05:41.749Z,260
2018-09-08T09:06:41.740Z,260
2018-09-08T09:07:41.351Z,255
2018-09-08T09:08:42.078Z,255
2018-09-08T09:09:41.238Z,255
2018-09-08T09:10:41.495Z,255
2018-09-08T09:11:42.778Z,255
2018-09-08T09:12:42.709Z,255
2018-09-08T09:13:41.596Z,260
2018-09-08T09:14:42.963Z,255
2018-09-08T09:15:43.064Z,250
2018-09-08T09:16:41.766Z,250
2018-09-08T09:17:41.514Z,250
2018-09-08T09:18:44.739Z,250
2018-09-08T09:19:41.513Z,250
2018-09-08T09:20:41.890Z,250
2018-09-08T09:21:41.516Z,250
2018-09-08T09:22:41.523Z,250
2018-09-08T09:23:40.988Z,250
2018-09-08T09:24:43.300Z,250
2018-09-08T09:25:41.562Z,245
2018-09-08T09:26:41.259Z,245
2018-09-08T09:27:41.515Z,245
2018-09-08T09:28:41.519Z,245
2018-09-08T09:29:41.525Z,245
2018-09-08T09:30:41.059Z,240
2018-09-08T09:31:41.557Z,240
2018-09-08T09:32:41.800Z,240
2018-09-08T09:33:41.311Z,240
2018-09-08T09:34:40.998Z,240
2018-09-08T09:35:41.544Z,240
2018-09-08T09:36:41.282Z,235
2018-09-08T09:37:41.804Z,235
2018-09-08T09:38:41.528Z,235
2018-09-08T09:39:41.796Z,235
2018-09-08T09:40:41.569Z,235
2018-09-08T09:41:41.554Z,235
2018-09-08T09:42:41.805Z,235
2018-09-08T09:43:41.571Z,230
2018-09-08T09:44:40.776Z,230
2018-09-08T09:45:41.563Z,235
2018-09-08T09:46:41.825Z,230
2018-09-08T09:47:41.804Z,230
2018-09-08T09:48:41.292Z,230
2018-09-08T09:49:41.816Z,230
2018-09-08T09:50:41.896Z,230
2018-09-08T09:51:41.565Z,230
2018-09-08T09:52:41.827Z,230
2018-09-08T09:53:41.828Z,230
2018-09-08T09:54:41.848Z,230
2018-09-08T09:55:41.669Z,230
2018-09-08T09:56:41.566Z,225
2018-09-08T09:57:41.593Z,225
2018-09-08T09:58:41.605Z,225
2018-09-08T09:59:41.077Z,230
2018-09-08T10:00:41.661Z,225
2018-09-08T10:01:41.603Z,225
2018-09-08T10:02:41.853Z,225
2018-09-08T10:03:41.599Z,220
2018-09-08T10:04:41.862Z,225
2018-09-08T10:05:41.925Z,225
2018-09-08T10:06:41.983Z,225
2018-09-08T10:07:41.582Z,220
2018-09-08T10:08:41.320Z,225
2018-09-08T10:09:41.850Z,220
2018-09-08T10:10:41.448Z,220
2018-09-08T10:11:42.385Z,220
2018-09-08T10:12:41.909Z,220
2018-09-08T10:13:41.569Z,220
2018-09-08T10:14:41.086Z,220
2018-09-08T10:15:41.602Z,220
2018-09-08T10:16:41.344Z,220
2018-09-08T10:17:41.853Z,220
2018-09-08T10:18:41.087Z,220
2018-09-08T10:19:41.356Z,220
2018-09-08T10:20:41.393Z,215
2018-09-08T10:21:41.609Z,215
2018-09-08T10:22:41.655Z,215
2018-09-08T10:24:04.339Z,215
2018-09-08T10:24:41.893Z,215
2018-09-08T10:25:41.670Z,215
2018-09-08T10:26:41.885Z,215
2018-09-08T10:27:41.113Z,210
2018-09-08T10:28:41.907Z,210
2018-09-08T10:29:41.685Z,210
2018-09-08T10:30:41.970Z,210
2018-09-08T10:31:41.649Z,210
2018-09-08T10:32:41.402Z,210
2018-09-08T10:33:41.401Z,210
2018-09-08T10:34:41.511Z,210
2018-09-08T10:35:41.181Z,210
2018-09-08T10:36:41.387Z,210
2018-09-08T10:37:41.647Z,210
2018-09-08T10:38:41.655Z,205
2018-09-08T10:39:41.149Z,205
2018-09-08T10:40:41.759Z,205
2018-09-08T10:41:41.706Z,205
2018-09-08T10:42:41.704Z,205
2018-09-08T10:43:41.417Z,205
2018-09-08T10:44:41.938Z,200
2018-09-08T10:45:41.484Z,200
2018-09-08T10:46:41.431Z,200
2018-09-08T10:47:41.948Z,200
2018-09-08T10:48:41.203Z,200
2018-09-08T10:49:41.677Z,200
2018-09-08T10:50:41.470Z,200
2018-09-08T10:51:41.964Z,200
2018-09-08T10:52:42.095Z,200
2018-09-08T10:53:41.699Z,200
2018-09-08T10:54:41.440Z,195
2018-09-08T10:55:41.816Z,195
2018-09-08T10:56:41.177Z,195
2018-09-08T10:57:41.438Z,195
2018-09-08T10:58:41.176Z,195
2018-09-08T10:59:41.188Z,195
2018-09-08T11:00:41.528Z,195
2018-09-08T11:01:41.939Z,195
2018-09-08T11:02:42.597Z,195
2018-09-08T11:03:41.966Z,195
2018-09-08T11:04:41.969Z,195
2018-09-08T11:05:41.531Z,195
2018-09-08T11:06:41.564Z,195
2018-09-08T11:07:41.472Z,195
2018-09-08T11:08:41.470Z,195
2018-09-08T11:09:41.734Z,195
2018-09-08T11:10:41.846Z,195
2018-09-08T11:11:41.205Z,195
2018-09-08T11:12:41.198Z,195
2018-09-08T11:13:41.204Z,195
2018-09-08T11:14:41.262Z,195
2018-09-08T11:15:41.812Z,195
2018-09-08T11:16:40.989Z,195
2018-09-08T11:17:41.756Z,195
2018-09-08T11:18:41.557Z,195
2018-09-08T11:19:41.496Z,195
2018-09-08T11:20:41.300Z,175
2018-09-08T11:21:41.507Z,170
2018-09-08T11:22:41.234Z,180
2018-09-08T11:23:41.749Z,150
2018-09-08T11:24:41.496Z,160
2018-09-08T11:25:42.030Z,160
2018-09-08T11:26:41.476Z,145
2018-09-08T11:27:41.880Z,195
2018-09-08T11:28:41.505Z,165
2018-09-08T11:29:41.275Z,175
2018-09-08T11:30:42.213Z,190
2018-09-08T11:31:42.036Z,190
2018-09-08T11:32:42.041Z,190
2018-09-08T11:33:41.778Z,190
2018-09-08T11:34:41.548Z,190
2018-09-08T11:35:42.050Z,190
2018-09-08T11:36:41.518Z,190
2018-09-08T11:37:41.286Z,190
2018-09-08T11:38:41.263Z,190
2018-09-08T11:39:42.037Z,190
2018-09-08T11:40:41.595Z,190
2018-09-08T11:41:41.519Z,190
2018-09-08T11:42:41.787Z,190
2018-09-08T11:43:41.277Z,190
2018-09-08T11:44:42.089Z,190
2018-09-08T11:45:41.858Z,190
2018-09-08T11:46:41.542Z,190
2018-09-08T11:47:41.538Z,190
2018-09-08T11:48:41.516Z,185
2018-09-08T11:49:42.225Z,195
2018-09-08T11:50:41.622Z,165
2018-09-08T11:51:41.518Z,185
2018-09-08T11:52:42.068Z,185
2018-09-08T11:53:42.070Z,185
2018-09-08T11:54:42.051Z,175
2018-09-08T11:55:42.079Z,185
2018-09-08T11:56:41.809Z,185
2018-09-08T11:57:41.556Z,185
2018-09-08T11:58:41.551Z,185
2018-09-08T11:59:41.853Z,185
2018-09-08T12:00:41.849Z,185
2018-09-08T12:01:42.079Z,185
2018-09-08T12:02:41.567Z,180
2018-09-08T12:03:41.560Z,175
2018-09-08T12:04:41.572Z,170
2018-09-08T12:05:41.904Z,170
2018-09-08T12:06:41.987Z,140
2018-09-08T12:07:41.955Z,185
2018-09-08T12:08:41.410Z,175
2018-09-08T12:09:41.840Z,185
2018-09-08T12:10:41.714Z,185
2018-09-08T12:11:41.812Z,180
2018-09-08T12:12:41.843Z,180
2018-09-08T12:13:41.365Z,180
2018-09-08T12:14:42.124Z,185
2018-09-08T12:15:41.853Z,180
2018-09-08T12:16:41.326Z,185
2018-09-08T12:17:41.834Z,180
2018-09-08T12:18:42.122Z,180
2018-09-08T12:19:42.123Z,180
2018-09-08T12:20:41.935Z,180
2018-09-08T12:21:41.332Z,180
2018-09-08T12:22:42.143Z,180
2018-09-08T12:23:42.147Z,180
2018-09-08T12:24:41.869Z,180
2018-09-08T12:25:41.925Z,180
2018-09-08T12:26:41.390Z,180
2018-09-08T12:27:41.612Z,180
2018-09-08T12:28:41.621Z,180
2018-09-08T12:29:41.886Z,180
2018-09-08T12:30:42.925Z,180
2018-09-08T12:31:41.616Z,180
2018-09-08T12:32:42.371Z,175
2018-09-08T12:33:41.891Z,180
2018-09-08T12:34:41.896Z,180
2018-09-08T12:35:41.975Z,180
2018-09-08T12:36:42.148Z,180
2018-09-08T12:37:41.393Z,175
2018-09-08T12:38:42.147Z,180
2018-09-08T12:39:41.385Z,175
2018-09-08T12:40:41.702Z,175
2018-09-08T12:41:41.901Z,175
2018-09-08T12:42:41.904Z,180
2018-09-08T12:43:41.381Z,180
2018-09-08T12:44:41.902Z,175
2018-09-08T12:45:41.697Z,175
2018-09-08T12:46:41.659Z,175
2018-09-08T12:47:41.674Z,175
2018-09-08T12:48:41.912Z,175
2018-09-08T12:49:41.924Z,140
2018-09-08T12:50:41.509Z,175
2018-09-08T12:51:41.932Z,155
2018-09-08T12:52:42.199Z,165
2018-09-08T12:53:41.448Z,165
2018-09-08T12:54:41.934Z,170
2018-09-08T12:55:41.767Z,175
2018-09-08T12:56:41.696Z,175
2018-09-08T12:57:41.952Z,165
2018-09-08T12:58:41.955Z,170
2018-09-08T12:59:42.619Z,170
2018-09-08T13:00:42.072Z,165
2018-09-08T13:01:41.974Z,170
2018-09-08T13:02:41.977Z,170
2018-09-08T13:03:41.442Z,175
2018-09-08T13:04:41.996Z,175
2018-09-08T13:05:41.995Z,175
2018-09-08T13:06:41.969Z,170
2018-09-08T13:07:42.207Z,170
2018-09-08T13:08:42.244Z,175
2018-09-08T13:09:42.246Z,170
2018-09-08T13:10:42.054Z,165
2018-09-08T13:11:42.268Z,175
2018-09-08T13:12:42.244Z,165
2018-09-08T13:13:41.799Z,165
2018-09-08T13:14:42.002Z,165
2018-09-08T13:15:42.028Z,160
2018-09-08T13:16:41.744Z,155
2018-09-08T13:17:42.316Z,155
2018-09-08T13:18:42.278Z,160
2018-09-08T13:19:42.273Z,165
2018-09-08T13:20:42.095Z,170
2018-09-08T13:21:42.013Z,170
2018-09-08T13:22:41.541Z,185
2018-09-08T13:23:41.774Z,205
2018-09-08T13:24:42.030Z,205
2018-09-08T13:25:41.855Z,205
2018-09-08T13:26:41.775Z,215
2018-09-08T13:27:41.764Z,200
2018-09-08T13:28:41.753Z,195
2018-09-08T13:29:42.050Z,215
2018-09-08T13:30:42.056Z,225
2018-09-08T13:31:42.023Z,230
2018-09-08T13:32:41.531Z,235
2018-09-08T13:33:42.100Z,240
2018-09-08T13:34:41.540Z,230
2018-09-08T13:35:42.368Z,245
2018-09-08T13:36:41.850Z,255
2018-09-08T13:37:42.320Z,255
2018-09-08T13:38:41.555Z,260
2018-09-08T13:39:42.934Z,260
2018-09-08T13:40:41.328Z,255
2018-09-08T13:41:42.334Z,260
2018-09-08T13:42:41.891Z,245
2018-09-08T13:43:41.821Z,240
2018-09-08T13:44:42.360Z,235
2018-09-08T13:45:42.118Z,230
2018-09-08T13:46:42.352Z,230
2018-09-08T13:47:42.100Z,225
2018-09-08T13:48:42.081Z,225
2018-09-08T13:49:41.578Z,225
2018-09-08T13:50:42.125Z,220
2018-09-08T13:51:42.078Z,215
2018-09-08T13:52:42.563Z,215
2018-09-08T13:53:41.570Z,215
2018-09-08T13:54:42.361Z,200
2018-09-08T13:55:42.223Z,195
2018-09-08T13:56:41.606Z,190
2018-09-08T13:57:41.847Z,180
2018-09-08T13:58:42.140Z,180
2018-09-08T13:59:42.377Z,175
2018-09-08T14:00:42.400Z,175
2018-09-08T14:01:42.115Z,170
2018-09-08T14:02:41.875Z,165
2018-09-08T14:03:42.405Z,165
2018-09-08T14:04:42.399Z,160
2018-09-08T14:05:41.965Z,150
2018-09-08T14:06:42.155Z,140
2018-09-08T14:07:41.630Z,135